createdAt,value
2018-09-20T00:00:02.190Z,81.6
2018-09-20T00:05:01.699Z,81.37
2018-09-20T00:10:02.030Z,81.46
2018-09-20T00:15:01.290Z,80.86
2018-09-20T00:20:01.763Z,79.71
2018-09-20T00:25:02.232Z,78.9
2018-09-20T00:30:01.703Z,77.97
2018-09-20T00:35:02.272Z,77.71
2018-09-20T00:40:01.723Z,77.48
2018-09-20T00:45:02.090Z,78.28
2018-09-20T00:50:01.491Z,78.36
2018-09-20T00:55:02.017Z,78.47
2018-09-20T01:00:01.474Z,78.67
2018-09-20T01:05:01.918Z,78.7
2018-09-20T01:10:01.237Z,78.96
2018-09-20T01:15:01.544Z,79.07
2018-09-20T01:20:01.965Z,79.48
2018-09-20T01:25:01.532Z,79.48
2018-09-20T01:30:02.002Z,79.27
2018-09-20T01:35:01.579Z,79.16
2018-09-20T01:40:01.995Z,79.39
2018-09-20T01:45:01.563Z,79.36
2018-09-20T01:50:02.008Z,79.14
2018-09-20T01:55:01.300Z,79.37
2018-09-20T02:00:01.664Z,79.54
2018-09-20T02:05:02.196Z,79.54
2018-09-20T02:10:01.595Z,79.77
2018-09-20T02:15:01.924Z,80.32
2018-09-20T02:20:01.343Z,80.79
2018-09-20T02:25:01.796Z,81.06
2018-09-20T02:30:02.234Z,80.96
2018-09-20T02:35:02.244Z,80.86
2018-09-20T02:40:02.189Z,81.13
2018-09-20T02:45:01.484Z,81.68
2018-09-20T02:50:01.891Z,82.15
2018-09-20T02:55:01.234Z,82.6
2018-09-20T03:00:01.578Z,83.23
2018-09-20T03:05:02.062Z,83.53
2018-09-20T03:10:01.393Z,83.5
2018-09-20T03:15:01.780Z,83.67
2018-09-20T03:20:02.305Z,83.9
2018-09-20T03:25:01.628Z,83.95
2018-09-20T03:30:01.965Z,84.07
2018-09-20T03:35:01.306Z,84.18
2018-09-20T03:40:01.707Z,84.09
2018-09-20T03:45:02.032Z,83.98
2018-09-20T03:50:01.358Z,83.8
2018-09-20T03:55:01.696Z,83.55
2018-09-20T04:00:02.081Z,83.67
2018-09-20T04:05:01.435Z,83.56
2018-09-20T04:10:01.778Z,83.63
2018-09-20T04:15:02.158Z,83.52
2018-09-20T04:20:01.424Z,83.73
2018-09-20T04:25:01.836Z,83.66
2018-09-20T04:30:02.150Z,83.44
2018-09-20T04:35:01.671Z,83.09
2018-09-20T04:40:01.624Z,82.63
2018-09-20T04:45:01.977Z,82.47
2018-09-20T04:50:01.309Z,82.92
2018-09-20T04:55:01.671Z,83.86
2018-09-20T05:00:02.239Z,84.58
2018-09-20T05:05:01.826Z,85.03
2018-09-20T05:10:02.281Z,85.43
2018-09-20T05:15:01.652Z,85.76
2018-09-20T05:20:02.095Z,86.08
2018-09-20T05:25:01.404Z,86.34
2018-09-20T05:30:01.807Z,86.4
2018-09-20T05:35:02.238Z,86.42
2018-09-20T05:40:01.601Z,86.33
2018-09-20T05:45:01.884Z,86.27
2018-09-20T05:50:02.366Z,85.84
2018-09-20T05:55:01.737Z,85.59
2018-09-20T06:00:02.064Z,84.74
2018-09-20T06:05:01.431Z,84.11
2018-09-20T06:10:01.772Z,83.33
2018-09-20T06:15:02.098Z,82.32
2018-09-20T06:20:01.406Z,81.53
2018-09-20T06:25:01.714Z,81.01
2018-09-20T06:30:02.038Z,80.25
2018-09-20T06:35:01.534Z,80.25
2018-09-20T06:40:02.100Z,80.26
2018-09-20T06:45:01.367Z,80.28
2018-09-20T06:50:01.786Z,80.1
2018-09-20T06:55:02.114Z,80.11
2018-09-20T07:00:01.364Z,80.42
2018-09-20T07:05:01.721Z,79.58
2018-09-20T07:10:02.082Z,78.42
2018-09-20T07:15:01.352Z,78.64
2018-09-20T07:20:01.725Z,75.58
2018-09-20T07:25:02.134Z,75.41
2018-09-20T07:30:01.489Z,73.4
2018-09-20T07:35:01.940Z,72.38
2018-09-20T07:40:01.291Z,70.92
2018-09-20T07:45:01.623Z,69.73
2018-09-20T07:50:02.011Z,68.52
2018-09-20T07:55:01.341Z,68.28
2018-09-20T08:00:01.624Z,67.93
2018-09-20T08:05:02.082Z,65.92
2018-09-20T08:10:01.381Z,64.37
2018-09-20T08:15:01.670Z,65.87
2018-09-20T08:20:02.106Z,63.97
2018-09-20T08:25:01.397Z,63.49
2018-09-20T08:30:01.756Z,64.35
2018-09-20T08:35:02.232Z,63.76
2018-09-20T08:40:01.613Z,62.52
2018-09-20T08:45:01.902Z,63.43
2018-09-20T08:50:01.204Z,62.78
2018-09-20T08:55:01.509Z,62.58
2018-09-20T09:00:01.855Z,61.48
2018-09-20T09:05:01.206Z,62.45
2018-09-20T09:10:01.523Z,63.42
2018-09-20T09:15:01.837Z,64.69
2018-09-20T09:20:02.324Z,62.61
2018-09-20T09:25:01.735Z,62.1
2018-09-20T09:30:02.074Z,63.19
2018-09-20T09:35:01.380Z,60.7
2018-09-20T09:40:01.721Z,59.34
2018-09-20T09:45:02.005Z,60.01
2018-09-20T09:50:01.321Z,60.21
2018-09-20T09:55:01.656Z,60.36
2018-09-20T10:00:01.996Z,60.04
2018-09-20T10:05:01.334Z,60.08
2018-09-20T10:10:01.648Z,58.85
2018-09-20T10:15:02.037Z,58.85
2018-09-20T10:20:01.605Z,60.62
2018-09-20T10:25:01.260Z,59.22
2018-09-20T10:30:01.608Z,58.2
2018-09-20T10:35:02.107Z,60.15
2018-09-20T10:40:01.428Z,61.44
2018-09-20T10:45:01.707Z,61.23
2018-09-20T10:50:02.128Z,60.1
2018-09-20T10:55:01.494Z,58.58
2018-09-20T11:00:01.829Z,58.59
2018-09-20T11:05:02.293Z,58.08
2018-09-20T11:10:01.651Z,55.16
2018-09-20T11:15:01.977Z,56.27
2018-09-20T11:20:01.290Z,55.63
2018-09-20T11:25:01.597Z,54.54
2018-09-20T11:30:01.915Z,53.47
2018-09-20T11:35:01.279Z,53.17
2018-09-20T11:40:01.656Z,53.57
2018-09-20T11:45:01.940Z,52.22
2018-09-20T11:50:01.256Z,51.61
2018-09-20T11:55:01.544Z,52.86
2018-09-20T12:00:01.883Z,51.25
2018-09-20T12:05:01.212Z,53.42
2018-09-20T12:10:01.538Z,49.88
2018-09-20T12:15:01.850Z,51.07
2018-09-20T12:20:01.453Z,49.45
2018-09-20T12:25:01.957Z,50.31
2018-09-20T12:30:01.330Z,50.36
2018-09-20T12:35:01.758Z,50.55
2018-09-20T12:40:02.186Z,47.91
2018-09-20T12:45:01.538Z,48.9
2018-09-20T12:50:01.938Z,49.46
2018-09-20T12:55:01.290Z,48.94
2018-09-20T13:00:01.589Z,50.12
2018-09-20T13:05:02.136Z,47.78
2018-09-20T13:10:01.455Z,48.78
2018-09-20T13:15:01.736Z,49.43
2018-09-20T13:20:01.519Z,49.43
2018-09-20T13:25:02.204Z,49.04
2018-09-20T13:30:01.494Z,47.87
2018-09-20T13:35:01.961Z,47.3
2018-09-20T13:40:01.317Z,47.81
2018-09-20T13:45:01.674Z,47.34
2018-09-20T13:50:02.037Z,48.51
2018-09-20T13:55:01.368Z,46.92
2018-09-20T14:00:01.628Z,45.01
2018-09-20T14:05:02.108Z,46.67
2018-09-20T14:10:01.458Z,48.32
2018-09-20T14:15:01.744Z,45.92
2018-09-20T14:20:02.146Z,45.6
2018-09-20T14:25:01.568Z,47.09
2018-09-20T14:30:01.946Z,44.28
2018-09-20T14:35:01.217Z,45.32
2018-09-20T14:40:01.539Z,44.37
2018-09-20T14:45:01.823Z,45.96
2018-09-20T14:50:02.217Z,44.29
2018-09-20T14:55:01.636Z,43.72
2018-09-20T15:00:02.018Z,44.37
2018-09-20T15:05:01.441Z,44.47
2018-09-20T15:10:01.757Z,44.56
2018-09-20T15:15:02.161Z,44.4
2018-09-20T15:20:01.676Z,46.17
2018-09-20T15:25:02.075Z,45.14
2018-09-20T15:30:01.388Z,43.88
2018-09-20T15:35:01.889Z,43.05
2018-09-20T15:40:01.511Z,43.24
2018-09-20T15:45:01.986Z,46.56
2018-09-20T15:50:01.304Z,43.55
2018-09-20T16:00:01.974Z,43.57
2018-09-20T16:05:01.391Z,43.23
2018-09-20T16:15:01.883Z,45.37
2018-09-20T16:20:01.233Z,45.98
2018-09-20T16:25:01.731Z,46.01
2018-09-20T16:30:02.121Z,46.16
2018-09-20T16:35:01.479Z,47.18
2018-09-20T16:40:01.805Z,48.87
2018-09-20T16:45:02.126Z,49.78
2018-09-20T16:50:01.477Z,50.05
2018-09-20T16:55:01.825Z,49.1
2018-09-20T17:00:02.095Z,51.8
2018-09-20T17:05:01.510Z,52.41
2018-09-20T17:10:01.959Z,49.36
2018-09-20T17:15:01.780Z,51.1
2018-09-20T17:20:01.790Z,50.97
2018-09-20T17:25:01.187Z,49.99
2018-09-20T17:30:01.551Z,49.03
2018-09-20T17:35:01.990Z,48.66
2018-09-20T17:40:01.314Z,49.07
2018-09-20T17:45:01.621Z,49.29
2018-09-20T17:50:02.045Z,49.27
2018-09-20T17:55:01.349Z,48.92
2018-09-20T18:00:01.666Z,48.9
2018-09-20T18:05:02.175Z,49.27
2018-09-20T18:10:01.515Z,49.25
2018-09-20T18:15:02.009Z,49.48
2018-09-20T18:20:01.520Z,49.84
2018-09-20T18:25:01.925Z,50.35
2018-09-20T18:30:01.224Z,50.61
2018-09-20T18:35:01.654Z,50.84
2018-09-20T18:40:02.049Z,50.94
2018-09-20T18:45:01.402Z,51.16
2018-09-20T18:50:02.077Z,51.22
2018-09-20T18:55:01.528Z,51.34
2018-09-20T19:00:01.802Z,51.67
2018-09-20T19:05:02.220Z,51.92
2018-09-20T19:10:01.686Z,52.11
2018-09-20T19:15:02.016Z,52.31
2018-09-20T19:20:01.390Z,52.48
2018-09-20T19:25:01.726Z,53.01
2018-09-20T19:30:01.994Z,53.48
2018-09-20T19:35:01.341Z,53.78
2018-09-20T19:40:01.625Z,54.21
2018-09-20T19:45:01.907Z,54.73
2018-09-20T19:50:02.325Z,55.01
2018-09-20T19:55:01.830Z,55.3
2018-09-20T20:00:01.171Z,55.15
2018-09-20T20:05:01.516Z,55.31
2018-09-20T20:10:01.926Z,55.69
2018-09-20T20:15:01.628Z,55.85
2018-09-20T20:20:02.094Z,56.12
2018-09-20T20:25:01.502Z,56.39
2018-09-20T20:30:01.822Z,56.71
2018-09-20T20:35:02.336Z,56.85
2018-09-20T20:40:01.732Z,56.93
2018-09-20T20:45:02.231Z,57.25
2018-09-20T20:50:01.647Z,57.63
2018-09-20T20:55:01.968Z,58.21
2018-09-20T21:00:01.218Z,58.64
2018-09-20T21:05:01.720Z,59.46
2018-09-20T21:10:02.093Z,60.22
2018-09-20T21:15:01.380Z,60.51
2018-09-20T21:20:01.891Z,60.67
2018-09-20T21:25:02.223Z,60.88
2018-09-20T21:30:01.498Z,61.57
2018-09-20T21:35:01.878Z,62.18
2018-09-20T21:40:02.168Z,62.75
2018-09-20T21:45:01.468Z,62.97
2018-09-20T21:50:01.903Z,63.25
2018-09-20T21:55:01.216Z,63.42
2018-09-20T22:00:01.493Z,63.59
2018-09-20T22:05:01.999Z,63.84
2018-09-20T22:10:01.254Z,64.15
2018-09-20T22:15:01.530Z,64.48
2018-09-20T22:20:01.953Z,64.84
2018-09-20T22:25:01.270Z,65.13
2018-09-20T22:30:01.545Z,65.24
2018-09-20T22:35:01.996Z,65.45
2018-09-20T22:40:01.437Z,65.48
2018-09-20T22:45:01.940Z,65.54
2018-09-20T22:50:01.486Z,65.38
2018-09-20T22:55:01.799Z,65.26
2018-09-20T23:00:02.160Z,65.29
2018-09-20T23:05:01.521Z,65.39
2018-09-20T23:10:01.872Z,65.5
2018-09-20T23:15:01.179Z,65.79
2018-09-20T23:20:01.561Z,65.94
2018-09-20T23:25:01.948Z,66.08
2018-09-20T23:30:01.214Z,66.02
2018-09-20T23:35:01.657Z,65.96
2018-09-20T23:40:02.043Z,65.99
2018-09-20T23:45:01.303Z,66.35
2018-09-20T23:50:01.689Z,66.54
2018-09-20T23:55:02.006Z,66.72
